Time;durP1;ratioP1;P1;durP2;ratioP2;P2;SDS_P1;SDS_P2;PMS_P1;PMS_P2;Temp;Humidity;BMP_temperature;BMP_pressure;BME280_temperature;BME280_humidity;BME280_pressure;Samples;Min_cycle;Max_cycle;Signal;HPM_P1;HPM_P2
2022/11/08 00:01:33;;;;;;;40.70;38.25;;;13.80;99.90;;;;;;5072957;28;20395;-55
2022/11/08 00:04:00;;;;;;;40.78;38.35;;;13.80;99.90;;;;;;5073352;28;20384;-53
2022/11/08 00:14:45;;;;;;;39.63;37.13;;;13.90;99.90;;;;;;5071601;28;20378;-53
2022/11/08 00:17:12;;;;;;;37.55;35.25;;;13.90;99.90;;;;;;5087695;28;20380;-53
2022/11/08 00:19:38;;;;;;;42.00;39.57;;;13.90;99.90;;;;;;5085647;28;20656;-53
2022/11/08 00:22:03;;;;;;;45.67;42.87;;;13.90;99.90;;;;;;5085809;28;20791;-55
2022/11/08 00:24:29;;;;;;;41.40;38.85;;;13.90;99.90;;;;;;5087030;28;20387;-54
2022/11/08 00:26:55;;;;;;;48.50;45.67;;;13.90;99.90;;;;;;5087455;28;20467;-54
2022/11/08 00:29:20;;;;;;;44.42;41.92;;;13.90;99.90;;;;;;5087867;28;20376;-56
2022/11/08 00:31:46;;;;;;;42.58;40.20;;;13.90;99.90;;;;;;5087664;28;20794;-57
2022/11/08 00:34:11;;;;;;;47.07;44.43;;;13.90;99.90;;;;;;5087405;28;20391;-51
2022/11/08 00:36:37;;;;;;;37.70;35.38;;;14.00;99.90;;;;;;5088118;28;20403;-55
2022/11/08 00:39:02;;;;;;;46.53;43.87;;;13.90;99.90;;;;;;5087947;28;20392;-54
2022/11/08 00:41:28;;;;;;;47.70;44.93;;;13.90;99.90;;;;;;5083531;28;20665;-50
2022/11/08 00:43:53;;;;;;;45.47;42.80;;;13.90;99.90;;;;;;5084593;28;20419;-51
2022/11/08 00:46:19;;;;;;;39.90;37.40;;;13.90;99.90;;;;;;5084510;28;20709;-53
2022/11/08 00:48:44;;;;;;;45.97;43.28;;;13.90;99.90;;;;;;5068272;28;20398;-56
2022/11/08 00:51:11;;;;;;;41.28;38.80;;;13.90;99.90;;;;;;5081825;28;20403;-52
2022/11/08 00:53:38;;;;;;;45.53;42.78;;;13.90;99.90;;;;;;5082983;28;20450;-53
2022/11/08 00:56:05;;;;;;;45.85;43.15;;;13.90;99.90;;;;;;5081611;28;20410;-52
2022/11/08 00:58:31;;;;;;;42.75;40.15;;;13.90;99.90;;;;;;5082055;28;20471;-55
2022/11/08 01:00:57;;;;;;;41.38;38.88;;;13.90;99.90;;;;;;5080360;28;20549;-54
2022/11/08 01:03:24;;;;;;;44.10;41.30;;;13.90;99.90;;;;;;5080327;28;20420;-52
2022/11/08 01:05:53;;;;;;;42.05;39.55;;;13.80;99.90;;;;;;5064492;28;20411;-51
2022/11/08 01:08:21;;;;;;;39.30;36.90;;;13.80;99.90;;;;;;5080848;28;20387;-52
2022/11/08 01:10:50;;;;;;;43.83;41.15;;;13.80;99.90;;;;;;5066041;28;20387;-51
2022/11/08 01:13:17;;;;;;;46.33;43.40;;;13.80;99.90;;;;;;5083403;28;20388;-53
2022/11/08 01:15:44;;;;;;;43.40;40.85;;;13.80;99.90;;;;;;5086916;28;20570;-49
2022/11/08 01:18:11;;;;;;;45.58;42.80;;;13.80;99.90;;;;;;5086828;28;20415;-51
2022/11/08 01:20:38;;;;;;;39.30;36.97;;;13.80;99.90;;;;;;5086566;28;20395;-51
2022/11/08 01:23:04;;;;;;;40.08;37.53;;;13.80;99.90;;;;;;5087096;28;20560;-54
2022/11/08 01:25:29;;;;;;;44.58;42.08;;;13.80;99.90;;;;;;5087999;28;20453;-55
2022/11/08 01:27:55;;;;;;;41.03;38.60;;;13.80;99.90;;;;;;5086693;28;20483;-52
2022/11/08 01:30:20;;;;;;;47.13;44.47;;;13.80;99.90;;;;;;5087877;28;20776;-50
2022/11/08 01:32:46;;;;;;;46.37;43.27;;;13.80;99.90;;;;;;5088913;28;20703;-53
2022/11/08 01:35:12;;;;;;;41.55;39.15;;;13.70;99.90;;;;;;5071389;28;20807;-54
2022/11/08 01:37:37;;;;;;;42.47;39.87;;;13.70;99.90;;;;;;5087738;28;20638;-55
2022/11/08 01:40:04;;;;;;;40.83;38.40;;;13.70;99.90;;;;;;5072288;28;20823;-54
2022/11/08 01:42:31;;;;;;;40.58;38.13;;;13.70;99.90;;;;;;5086135;28;20471;-50
2022/11/08 01:45:02;;;;;;;44.78;41.97;;;13.70;99.90;;;;;;5070818;28;20621;-49
2022/11/08 01:47:28;;;;;;;41.45;39.08;;;13.70;99.90;;;;;;5071153;28;20650;-52
2022/11/08 01:49:59;;;;;;;45.70;42.80;;;13.70;99.90;;;;;;5087528;28;20486;-56
2022/11/08 01:52:32;;;;;;;43.72;41.22;;;13.70;99.90;;;;;;5071443;28;20415;-53
2022/11/08 01:55:05;;;;;;;43.60;40.78;;;13.70;99.90;;;;;;5090467;28;20483;-54
2022/11/08 01:57:37;;;;;;;43.83;40.55;;;13.70;99.90;;;;;;5091188;28;20621;-50
2022/11/08 02:00:07;;;;;;;42.67;40.17;;;13.70;99.90;;;;;;5092195;28;20396;-54
2022/11/08 02:02:34;;;;;;;39.60;37.17;;;13.70;99.90;;;;;;5074888;28;20445;-53
2022/11/08 02:05:00;;;;;;;41.25;38.80;;;13.70;99.90;;;;;;5090443;28;20383;-52
2022/11/08 02:07:28;;;;;;;38.45;36.08;;;13.70;99.90;;;;;;5073421;28;20419;-52
2022/11/08 02:09:55;;;;;;;41.22;38.83;;;13.70;99.90;;;;;;5089620;28;20390;-56
2022/11/08 02:12:22;;;;;;;42.95;40.42;;;13.70;99.90;;;;;;5087978;28;20427;-50
2022/11/08 02:14:47;;;;;;;43.78;41.17;;;13.70;99.90;;;;;;5087365;28;20445;-53
2022/11/08 02:17:13;;;;;;;36.20;34.00;;;13.70;99.90;;;;;;5070496;28;20379;-55
2022/11/08 02:19:46;;;;;;;39.27;36.90;;;13.60;99.90;;;;;;5071072;28;20463;-56
2022/11/08 02:22:28;;;;;;;39.15;36.53;;;13.60;99.90;;;;;;5087379;28;20723;-53
2022/11/08 02:24:57;;;;;;;37.42;35.22;;;13.60;99.90;;;;;;5086375;28;20648;-55
2022/11/08 02:27:23;;;;;;;40.95;38.47;;;13.60;99.90;;;;;;5072369;28;20415;-50
2022/11/08 02:29:54;;;;;;;38.10;35.90;;;13.60;99.90;;;;;;5072329;28;20390;-55
2022/11/08 02:32:20;;;;;;;38.45;36.15;;;13.60;99.90;;;;;;5088738;28;20386;-53
2022/11/08 02:34:56;;;;;;;36.67;34.43;;;13.60;99.90;;;;;;5088491;28;20485;-52
2022/11/08 02:37:24;;;;;;;40.42;38.10;;;13.60;99.90;;;;;;5088300;28;20435;-52
2022/11/08 02:39:50;;;;;;;36.63;34.33;;;13.60;99.90;;;;;;5089075;28;20422;-56
2022/11/08 02:42:18;;;;;;;38.57;36.07;;;13.60;99.90;;;;;;5088529;28;20671;-53
2022/11/08 02:44:44;;;;;;;39.65;37.08;;;13.60;99.90;;;;;;5089315;28;20376;-56
2022/11/08 02:47:10;;;;;;;41.03;38.35;;;13.60;99.90;;;;;;5088969;28;20384;-54
2022/11/08 02:49:36;;;;;;;39.58;36.90;;;13.60;99.90;;;;;;5087890;28;20501;-55
2022/11/08 02:52:02;;;;;;;34.57;32.60;;;13.70;99.90;;;;;;5087836;28;20396;-54
2022/11/08 02:54:27;;;;;;;44.83;42.17;;;13.70;99.90;;;;;;5087868;28;20392;-52
2022/11/08 02:56:53;;;;;;;39.20;36.80;;;13.70;99.90;;;;;;5072485;28;20431;-54
2022/11/08 02:59:18;;;;;;;38.70;36.53;;;13.70;99.90;;;;;;5072790;28;20427;-50
2022/11/08 03:01:44;;;;;;;41.13;38.63;;;13.70;99.90;;;;;;5087964;28;20391;-55
2022/11/08 03:04:10;;;;;;;41.17;38.47;;;13.70;99.90;;;;;;5088562;28;20691;-51
2022/11/08 03:06:35;;;;;;;39.70;37.25;;;13.80;99.90;;;;;;5090660;28;20400;-54
2022/11/08 03:09:01;;;;;;;39.43;36.93;;;13.70;99.90;;;;;;5088963;28;20384;-53
2022/11/08 03:11:26;;;;;;;42.17;39.67;;;13.70;99.90;;;;;;5088879;28;20667;-51
2022/11/08 03:13:52;;;;;;;37.38;35.17;;;13.70;99.90;;;;;;5087579;28;20391;-52
2022/11/08 03:16:17;;;;;;;42.37;39.73;;;13.70;99.90;;;;;;5070242;28;20387;-55
2022/11/08 03:18:43;;;;;;;36.30;34.00;;;13.70;99.90;;;;;;5088556;28;20384;-56
2022/11/08 03:21:09;;;;;;;40.83;38.25;;;13.70;99.90;;;;;;5088609;28;20518;-54
2022/11/08 03:23:34;;;;;;;34.97;32.90;;;13.70;99.90;;;;;;5089076;28;20391;-60
2022/11/08 03:26:01;;;;;;;41.47;38.50;;;13.70;99.90;;;;;;5073572;28;20831;-53
2022/11/08 03:28:27;;;;;;;40.30;37.75;;;13.70;99.90;;;;;;5089319;28;20449;-53
2022/11/08 03:30:53;;;;;;;40.63;38.20;;;13.70;99.90;;;;;;5090354;28;20379;-54
2022/11/08 03:33:19;;;;;;;43.70;41.08;;;13.70;99.90;;;;;;5073324;28;20399;-53
2022/11/08 03:35:49;;;;;;;34.47;32.08;;;13.70;99.90;;;;;;5089898;28;20404;-56
2022/11/08 03:38:15;;;;;;;37.30;34.85;;;13.70;99.90;;;;;;5089843;28;20403;-50
2022/11/08 03:40:41;;;;;;;38.83;36.40;;;13.70;99.90;;;;;;5088933;28;20432;-50
2022/11/08 03:43:06;;;;;;;39.50;37.17;;;13.60;99.90;;;;;;5072821;28;20415;-54
2022/11/08 03:45:32;;;;;;;40.00;37.50;;;13.60;99.90;;;;;;5088739;28;20501;-49
2022/11/08 03:47:58;;;;;;;40.10;37.50;;;13.60;99.90;;;;;;5088628;28;20411;-51
2022/11/08 03:50:23;;;;;;;38.07;35.43;;;13.60;99.90;;;;;;5087727;28;20399;-56
2022/11/08 03:52:52;;;;;;;37.43;35.07;;;13.50;99.90;;;;;;5087489;28;20403;-54
2022/11/08 03:55:19;;;;;;;38.00;35.50;;;13.50;99.90;;;;;;5088251;28;20395;-56
2022/11/08 03:57:47;;;;;;;42.15;39.45;;;13.50;99.90;;;;;;5071811;28;20388;-54
2022/11/08 04:00:16;;;;;;;38.85;36.25;;;13.40;99.90;;;;;;5087513;28;20823;-55
2022/11/08 04:02:41;;;;;;;38.53;35.92;;;13.50;99.90;;;;;;5071554;28;20655;-56
2022/11/08 04:05:09;;;;;;;40.03;37.63;;;13.40;99.90;;;;;;5071243;28;20390;-55
2022/11/08 04:07:35;;;;;;;38.50;36.15;;;13.40;99.90;;;;;;5088182;28;20407;-53
2022/11/08 04:10:01;;;;;;;41.03;38.40;;;13.30;99.90;;;;;;5087811;28;20475;-52
2022/11/08 04:15:19;;;;;;;42.13;39.28;;;13.30;99.90;;;;;;5069747;28;20452;-53
2022/11/08 04:23:16;;;;;;;41.38;38.92;;;13.20;99.90;;;;;;5069798;28;20711;-52
2022/11/08 04:25:43;;;;;;;38.30;36.00;;;13.20;99.90;;;;;;5086139;28;20474;-52
2022/11/08 04:28:09;;;;;;;37.05;34.70;;;13.20;99.90;;;;;;5085849;28;20380;-50
2022/11/08 04:30:35;;;;;;;39.42;37.08;;;13.20;99.90;;;;;;5088497;28;20817;-50
2022/11/08 04:33:01;;;;;;;41.83;39.42;;;13.10;99.90;;;;;;5088361;28;20388;-56
2022/11/08 04:35:28;;;;;;;36.83;34.50;;;13.10;99.90;;;;;;5071452;28;20661;-53
2022/11/08 04:37:59;;;;;;;38.55;35.85;;;13.00;99.90;;;;;;5087195;28;20410;-50
2022/11/08 04:40:25;;;;;;;38.85;36.42;;;13.00;99.90;;;;;;5071787;28;20395;-53
2022/11/08 04:42:50;;;;;;;41.42;38.90;;;13.00;99.90;;;;;;5086685;28;20703;-50
2022/11/08 04:45:16;;;;;;;40.57;37.90;;;13.00;99.90;;;;;;5070361;28;20414;-50
2022/11/08 04:47:45;;;;;;;34.90;32.33;;;13.00;99.90;;;;;;5071349;28;20549;-48
2022/11/08 04:50:11;;;;;;;40.33;37.60;;;12.90;99.90;;;;;;5069371;28;20383;-48
2022/11/08 04:52:36;;;;;;;38.05;35.47;;;12.90;99.90;;;;;;5085420;28;20400;-49
2022/11/08 04:55:02;;;;;;;38.83;36.35;;;12.90;99.90;;;;;;5069670;28;20768;-48
2022/11/08 04:57:28;;;;;;;39.40;36.57;;;12.80;99.90;;;;;;5069164;28;20482;-53
2022/11/08 04:59:53;;;;;;;41.17;38.70;;;12.80;99.90;;;;;;5085335;28;20403;-50
2022/11/08 05:02:19;;;;;;;40.50;37.80;;;12.90;99.90;;;;;;5081853;28;20402;-49
2022/11/08 05:04:44;;;;;;;37.10;34.73;;;12.70;99.90;;;;;;5087266;28;20426;-52
2022/11/08 05:07:10;;;;;;;39.77;37.33;;;12.70;99.90;;;;;;5073045;28;21005;-54
2022/11/08 05:09:35;;;;;;;39.17;36.67;;;12.80;99.90;;;;;;5074029;28;20388;-50
2022/11/08 05:12:01;;;;;;;42.00;39.40;;;12.70;99.90;;;;;;5088046;28;20376;-53
2022/11/08 05:14:27;;;;;;;39.57;37.13;;;12.80;99.90;;;;;;5086570;28;20603;-52
2022/11/08 05:16:52;;;;;;;42.40;39.85;;;12.80;99.90;;;;;;5084451;28;20652;-53
2022/11/08 05:23:22;;;;;;;39.35;36.85;;;12.80;99.90;;;;;;5084108;28;20398;-53
2022/11/08 05:24:48;;;;;;;40.55;38.05;;;12.70;99.90;;;;;;5069451;28;20449;-53
2022/11/08 05:27:13;;;;;;;37.88;35.65;;;12.60;99.90;;;;;;5068790;28;20392;-49
2022/11/08 05:29:38;;;;;;;38.77;36.37;;;12.60;99.90;;;;;;5083866;28;20391;-51
2022/11/08 05:32:04;;;;;;;43.77;41.07;;;12.50;99.90;;;;;;5085620;28;20800;-54
2022/11/08 05:34:30;;;;;;;42.15;39.65;;;12.50;99.90;;;;;;5086664;28;20510;-50
2022/11/08 05:36:55;;;;;;;40.90;38.43;;;12.50;99.90;;;;;;5086440;28;20491;-50
2022/11/08 05:39:21;;;;;;;40.70;38.30;;;12.40;99.90;;;;;;5084613;28;20431;-56
2022/11/08 05:41:47;;;;;;;37.10;34.60;;;12.40;99.90;;;;;;5085777;28;20490;-54
2022/11/08 05:44:12;;;;;;;40.58;37.90;;;12.30;99.90;;;;;;5070785;28;20372;-53
2022/11/08 05:46:38;;;;;;;42.53;39.87;;;12.20;99.90;;;;;;5071048;28;20392;-52
2022/11/08 05:49:03;;;;;;;40.75;38.25;;;12.20;99.90;;;;;;5086119;28;20416;-53
2022/11/08 05:51:30;;;;;;;41.78;39.33;;;12.30;99.90;;;;;;5084862;28;20547;-55
2022/11/08 05:53:56;;;;;;;41.58;38.88;;;12.20;99.90;;;;;;5083441;28;20441;-51
2022/11/08 05:56:22;;;;;;;39.60;37.00;;;12.20;99.90;;;;;;5081873;28;20391;-52
2022/11/08 05:58:47;;;;;;;40.87;38.23;;;12.20;99.90;;;;;;5081462;28;20380;-55
2022/11/08 06:01:16;;;;;;;40.70;38.07;;;12.30;99.90;;;;;;5080364;28;20402;-54
2022/11/08 06:03:41;;;;;;;40.28;37.55;;;12.30;99.90;;;;;;5079485;28;20527;-55
2022/11/08 06:06:10;;;;;;;41.50;38.93;;;12.20;99.90;;;;;;5063545;28;20392;-54
2022/11/08 06:08:36;;;;;;;38.53;36.20;;;12.20;99.90;;;;;;5064908;28;20715;-55
2022/11/08 06:11:08;;;;;;;37.08;34.78;;;12.20;99.90;;;;;;5079968;28;20376;-54
2022/11/08 06:13:33;;;;;;;36.60;34.43;;;12.30;99.90;;;;;;5065461;28;20422;-52
2022/11/08 06:16:01;;;;;;;39.20;36.80;;;12.20;99.90;;;;;;5080665;28;20555;-54
2022/11/08 06:18:27;;;;;;;40.90;38.40;;;12.20;99.90;;;;;;5081310;28;20410;-53
2022/11/08 06:20:52;;;;;;;37.60;35.10;;;12.30;99.90;;;;;;5080582;28;20403;-53
2022/11/08 06:23:18;;;;;;;39.70;37.40;;;12.30;99.90;;;;;;5078843;28;20388;-53
2022/11/08 06:25:45;;;;;;;41.20;38.43;;;12.30;99.90;;;;;;5080637;28;20378;-56
2022/11/08 06:28:12;;;;;;;39.70;37.45;;;12.30;99.90;;;;;;5079065;28;20718;-50
2022/11/08 06:30:37;;;;;;;41.22;38.63;;;12.20;99.90;;;;;;5079511;28;20475;-52
2022/11/08 06:33:03;;;;;;;41.83;39.25;;;12.20;99.90;;;;;;5082015;28;20498;-58
2022/11/08 06:35:28;;;;;;;38.30;36.17;;;12.20;99.90;;;;;;5081982;28;20420;-51
2022/11/08 06:37:54;;;;;;;42.93;40.07;;;12.30;99.90;;;;;;5066201;28;20395;-52
2022/11/08 06:40:19;;;;;;;42.38;39.47;;;12.30;99.90;;;;;;5064582;28;20454;-55
2022/11/08 06:42:44;;;;;;;39.07;36.70;;;12.20;99.90;;;;;;5062255;28;20515;-53
2022/11/08 06:45:10;;;;;;;37.55;35.00;;;12.20;99.90;;;;;;5060571;28;20656;-57
2022/11/08 06:47:35;;;;;;;40.17;37.67;;;12.30;99.90;;;;;;5076587;28;20588;-56
2022/11/08 06:50:01;;;;;;;37.53;35.33;;;12.20;99.90;;;;;;5058850;28;20662;-55
2022/11/08 06:52:27;;;;;;;35.88;33.67;;;12.20;99.90;;;;;;5074543;28;20392;-52
2022/11/08 06:54:52;;;;;;;39.83;37.40;;;12.30;99.90;;;;;;5071628;28;20490;-53
2022/11/08 06:57:18;;;;;;;40.47;37.63;;;12.20;99.90;;;;;;5074149;28;20420;-54
2022/11/08 06:59:43;;;;;;;40.17;37.57;;;12.10;99.90;;;;;;5060759;28;20398;-53
2022/11/08 07:02:10;;;;;;;41.27;38.70;;;12.00;99.90;;;;;;5077498;28;20383;-53
2022/11/08 07:04:35;;;;;;;39.10;36.67;;;12.00;99.90;;;;;;5077672;28;20376;-51
2022/11/08 07:07:01;;;;;;;37.00;34.63;;;12.10;99.90;;;;;;5074977;28;20671;-56
2022/11/08 07:09:26;;;;;;;41.20;38.70;;;12.00;99.90;;;;;;5058338;28;20388;-56
2022/11/08 07:11:52;;;;;;;39.30;36.67;;;12.00;99.90;;;;;;5060066;28;20383;-53
2022/11/08 07:14:18;;;;;;;35.73;33.30;;;12.10;99.90;;;;;;5072253;28;20449;-55
2022/11/08 07:16:43;;;;;;;38.15;35.65;;;12.00;99.90;;;;;;5052557;28;20384;-54
2022/11/08 07:19:09;;;;;;;39.03;36.42;;;12.00;99.90;;;;;;5053779;28;20455;-53
2022/11/08 07:21:34;;;;;;;36.23;34.03;;;12.00;99.90;;;;;;5069716;28;20506;-55
2022/11/08 07:24:00;;;;;;;39.70;37.10;;;11.90;99.90;;;;;;5069789;28;20671;-52
2022/11/08 07:26:25;;;;;;;38.27;35.97;;;11.90;99.90;;;;;;5052180;28;20806;-56
2022/11/08 07:28:50;;;;;;;40.23;37.90;;;11.90;99.90;;;;;;5069260;28;20456;-54
2022/11/08 07:31:16;;;;;;;36.72;34.42;;;12.00;99.90;;;;;;5069965;28;20379;-54
2022/11/08 07:33:42;;;;;;;40.45;37.80;;;12.00;99.90;;;;;;5058378;28;20474;-53
2022/11/08 07:36:07;;;;;;;40.63;37.83;;;12.00;99.90;;;;;;5071600;28;20647;-55
2022/11/08 07:38:33;;;;;;;40.17;37.67;;;12.00;99.90;;;;;;5070004;28;20396;-56
2022/11/08 07:40:59;;;;;;;36.97;34.23;;;12.00;99.90;;;;;;5068798;28;20438;-52
2022/11/08 07:43:26;;;;;;;36.30;33.95;;;12.00;99.90;;;;;;5071508;28;20379;-56
2022/11/08 07:45:56;;;;;;;36.20;33.70;;;12.00;99.90;;;;;;5055921;28;20380;-53
2022/11/08 07:48:22;;;;;;;35.65;33.53;;;12.10;99.90;;;;;;5068438;28;20683;-49
2022/11/08 07:50:48;;;;;;;38.00;35.55;;;12.10;99.90;;;;;;5068389;28;21019;-56
2022/11/08 07:53:14;;;;;;;37.80;35.60;;;12.20;99.90;;;;;;5050520;28;20395;-53
2022/11/08 07:55:40;;;;;;;35.92;33.75;;;12.20;99.90;;;;;;5050484;28;20655;-50
2022/11/08 07:58:06;;;;;;;39.10;36.72;;;12.20;99.90;;;;;;5066680;28;20423;-55
2022/11/08 08:00:35;;;;;;;38.88;36.45;;;12.20;99.90;;;;;;5067375;28;20806;-55
2022/11/08 08:03:02;;;;;;;38.10;35.63;;;12.10;99.90;;;;;;5051043;28;20408;-54
2022/11/08 08:05:33;;;;;;;38.00;35.75;;;12.10;99.90;;;;;;5065521;28;20467;-55
2022/11/08 08:08:00;;;;;;;34.35;32.13;;;12.20;99.90;;;;;;5063988;28;20388;-56
2022/11/08 08:10:27;;;;;;;40.20;37.67;;;12.20;99.90;;;;;;5051033;28;20603;-54
2022/11/08 08:12:53;;;;;;;39.13;36.83;;;12.30;99.90;;;;;;5067980;28;20387;-55
2022/11/08 08:15:19;;;;;;;41.67;39.20;;;12.30;99.90;;;;;;5069105;28;20395;-52
2022/11/08 08:17:45;;;;;;;36.90;34.80;;;12.30;99.90;;;;;;5053288;28;20395;-51
2022/11/08 08:20:11;;;;;;;34.80;32.78;;;12.30;99.90;;;;;;5074680;28;20429;-55
2022/11/08 08:22:45;;;;;;;36.10;33.83;;;12.30;99.90;;;;;;5061208;28;20383;-53
2022/11/08 08:25:12;;;;;;;43.97;41.20;;;12.30;99.90;;;;;;5062247;28;20384;-53
2022/11/08 08:27:37;;;;;;;37.42;35.13;;;12.30;99.90;;;;;;5076585;28;20609;-56
2022/11/08 08:30:04;;;;;;;38.67;36.37;;;12.30;99.90;;;;;;5073749;28;20506;-54
2022/11/08 08:32:30;;;;;;;36.08;33.97;;;12.40;99.90;;;;;;5073453;28;20380;-56
2022/11/08 08:34:55;;;;;;;39.95;37.70;;;12.50;99.90;;;;;;5072878;28;20408;-55
2022/11/08 08:37:21;;;;;;;36.47;34.33;;;12.60;99.90;;;;;;5056190;28;20396;-53
2022/11/08 08:39:47;;;;;;;36.53;34.43;;;12.60;99.90;;;;;;5072595;28;20398;-56
2022/11/08 08:42:12;;;;;;;35.17;33.00;;;12.70;99.90;;;;;;5076155;28;20467;-55
2022/11/08 08:44:38;;;;;;;38.63;36.13;;;12.70;99.90;;;;;;5073265;28;20375;-57
2022/11/08 08:47:03;;;;;;;35.75;33.45;;;12.70;99.90;;;;;;5074681;28;20532;-57
2022/11/08 08:49:29;;;;;;;36.87;34.63;;;12.60;99.90;;;;;;5071591;28;20465;-56
2022/11/08 08:51:54;;;;;;;37.40;35.20;;;12.60;99.90;;;;;;5057581;28;20730;-56
2022/11/08 08:54:20;;;;;;;36.67;34.57;;;12.50;99.90;;;;;;5063095;28;20914;-55
2022/11/08 08:56:46;;;;;;;37.83;35.63;;;12.60;99.90;;;;;;5079022;28;20380;-57
2022/11/08 08:59:12;;;;;;;38.88;36.55;;;12.70;99.90;;;;;;5061914;28;20680;-58
2022/11/08 09:01:38;;;;;;;37.47;35.40;;;12.70;99.90;;;;;;5059292;28;20391;-57
2022/11/08 09:04:03;;;;;;;39.87;37.60;;;12.80;99.90;;;;;;5076677;28;20873;-57
2022/11/08 09:06:29;;;;;;;42.20;39.70;;;13.00;99.90;;;;;;5058928;28;20414;-55
2022/11/08 09:08:54;;;;;;;38.15;35.92;;;13.40;99.90;;;;;;5059170;28;21054;-49
2022/11/08 09:11:20;;;;;;;40.70;38.30;;;13.80;99.90;;;;;;5075546;28;20372;-55
2022/11/08 09:13:45;;;;;;;45.73;43.33;;;14.20;99.90;;;;;;5078914;28;20451;-54
2022/11/08 09:16:13;;;;;;;48.63;45.97;;;14.40;99.90;;;;;;5079992;28;20402;-58
2022/11/08 09:18:38;;;;;;;46.15;43.67;;;14.60;99.90;;;;;;5063892;28;20452;-54
2022/11/08 09:21:04;;;;;;;39.92;37.75;;;14.70;99.90;;;;;;5077776;28;20396;-58
2022/11/08 09:23:29;;;;;;;47.47;44.70;;;14.70;99.90;;;;;;5079142;28;20387;-56
2022/11/08 09:26:00;;;;;;;39.73;37.53;;;14.70;99.90;;;;;;5062315;28;20545;-55
2022/11/08 09:28:28;;;;;;;37.53;35.25;;;14.90;99.90;;;;;;5060528;28;20461;-56
2022/11/08 09:30:55;;;;;;;38.17;35.92;;;14.80;99.90;;;;;;5056407;28;20947;-57
2022/11/08 09:33:20;;;;;;;34.90;32.92;;;14.80;99.90;;;;;;5058213;28;20679;-58
2022/11/08 09:35:46;;;;;;;38.30;36.13;;;14.80;99.90;;;;;;5062343;28;20819;-57
2022/11/08 09:38:12;;;;;;;40.27;37.97;;;14.60;99.90;;;;;;5063089;28;20404;-52
2022/11/08 09:41:05;;;;;;;37.53;35.43;;;14.50;99.90;;;;;;5079942;28;20396;-56
2022/11/08 09:43:51;;;;;;;43.25;40.72;;;14.60;99.90;;;;;;5061623;28;21028;-54
2022/11/08 09:46:52;;;;;;;46.63;43.88;;;14.40;99.90;;;;;;5061804;28;20383;-57
2022/11/08 09:49:27;;;;;;;46.03;43.28;;;14.40;99.90;;;;;;5061170;28;20592;-56
2022/11/08 09:51:53;;;;;;;47.25;44.65;;;14.30;99.90;;;;;;5060809;28;20399;-57
2022/11/08 09:54:39;;;;;;;47.22;44.63;;;14.30;99.90;;;;;;5077483;28;20398;-58
2022/11/08 09:57:05;;;;;;;51.58;48.78;;;14.30;99.90;;;;;;5079690;28;21025;-55
2022/11/08 09:59:41;;;;;;;50.03;47.33;;;14.10;99.90;;;;;;5078328;28;20446;-55
2022/11/08 10:02:17;;;;;;;49.08;46.35;;;14.10;99.90;;;;;;5077518;28;20795;-52
2022/11/08 10:04:50;;;;;;;51.00;48.20;;;14.10;99.90;;;;;;5078072;28;20871;-54
2022/11/08 10:07:28;;;;;;;50.80;47.95;;;14.10;99.90;;;;;;5078031;28;20391;-55
2022/11/08 10:10:23;;;;;;;53.83;50.93;;;14.00;99.90;;;;;;5079248;28;20562;-52
2022/11/08 10:12:53;;;;;;;49.38;46.50;;;14.00;99.90;;;;;;5062645;28;20363;-55
2022/11/08 10:15:30;;;;;;;54.03;51.13;;;13.90;99.90;;;;;;5058142;28;20403;-55
2022/11/08 10:18:31;;;;;;;51.37;48.10;;;14.00;99.90;;;;;;5060782;28;20472;-54
2022/11/08 10:21:18;;;;;;;51.88;49.05;;;13.90;99.90;;;;;;5057925;28;20423;-56
2022/11/08 10:23:56;;;;;;;50.57;47.77;;;14.00;99.90;;;;;;5061189;28;20394;-56
2022/11/08 10:26:41;;;;;;;44.28;41.97;;;14.00;99.90;;;;;;5061758;28;20390;-55
2022/11/08 10:29:14;;;;;;;47.42;44.83;;;14.10;99.90;;;;;;5082443;28;20384;-54
2022/11/08 10:31:41;;;;;;;47.95;45.28;;;14.20;99.90;;;;;;5065525;28;20411;-52
2022/11/08 10:34:25;;;;;;;54.22;51.38;;;14.30;99.90;;;;;;5080659;28;20383;-54
2022/11/08 10:36:57;;;;;;;47.83;45.20;;;14.30;99.90;;;;;;5080749;28;20399;-56
2022/11/08 10:39:27;;;;;;;48.35;45.67;;;14.40;99.90;;;;;;5079507;28;20430;-52
2022/11/08 10:42:11;;;;;;;49.42;46.75;;;14.40;99.90;;;;;;5079940;28;20431;-54
2022/11/08 10:44:39;;;;;;;47.60;45.07;;;14.50;99.90;;;;;;5081212;28;20380;-54
2022/11/08 10:47:12;;;;;;;50.65;47.67;;;14.60;99.90;;;;;;5063280;28;21061;-55
2022/11/08 10:49:42;;;;;;;48.28;45.65;;;14.50;99.90;;;;;;5080206;28;20386;-54
2022/11/08 10:52:10;;;;;;;48.65;45.85;;;14.50;99.90;;;;;;5063098;28;20399;-56
2022/11/08 10:54:46;;;;;;;50.45;47.55;;;14.60;99.90;;;;;;5063458;28;20388;-56
2022/11/08 10:57:22;;;;;;;53.17;50.22;;;14.70;99.90;;;;;;5081232;28;20388;-56
2022/11/08 10:59:48;;;;;;;40.92;38.55;;;14.80;99.90;;;;;;5081226;28;20874;-56
2022/11/08 11:02:33;;;;;;;42.95;40.75;;;15.00;99.90;;;;;;5080333;28;21020;-55
2022/11/08 11:05:17;;;;;;;43.55;40.95;;;15.10;99.90;;;;;;5081584;28;20390;-52
2022/11/08 11:08:03;;;;;;;44.13;41.63;;;15.00;99.90;;;;;;5066624;28;20399;-57
2022/11/08 11:10:37;;;;;;;46.22;43.63;;;15.00;99.90;;;;;;5066976;28;21256;-56
2022/11/08 11:13:36;;;;;;;48.83;46.13;;;15.10;99.90;;;;;;5081959;28;20452;-55
2022/11/08 11:16:02;;;;;;;48.65;45.97;;;15.10;99.90;;;;;;5002848;28;20739;-55
2022/11/08 11:18:32;;;;;;;44.87;42.37;;;15.20;99.90;;;;;;5083497;28;20379;-55
2022/11/08 11:20:59;;;;;;;40.10;37.70;;;15.20;99.90;;;;;;5067322;28;20769;-56
2022/11/08 11:23:35;;;;;;;48.92;46.05;;;15.20;99.90;;;;;;5066022;28;20680;-53
2022/11/08 11:26:01;;;;;;;49.35;46.70;;;15.20;99.90;;;;;;5061831;28;20414;-54
2022/11/08 11:28:27;;;;;;;46.90;44.20;;;15.40;99.90;;;;;;5065461;28;20408;-55
2022/11/08 11:31:15;;;;;;;42.78;40.40;;;15.50;99.90;;;;;;5064387;28;20384;-56
2022/11/08 11:33:45;;;;;;;52.03;49.20;;;15.60;99.90;;;;;;5061465;28;20391;-55
2022/11/08 11:36:19;;;;;;;50.30;47.60;;;15.70;99.90;;;;;;5077824;28;20794;-52
2022/11/08 11:39:05;;;;;;;47.88;45.08;;;15.80;99.90;;;;;;5079050;28;20430;-55
2022/11/08 11:41:46;;;;;;;47.08;44.67;;;16.00;99.90;;;;;;5081249;28;20399;-55
2022/11/08 11:44:38;;;;;;;50.45;47.85;;;16.10;99.90;;;;;;5064950;28;20484;-55
2022/11/08 11:47:26;;;;;;;53.85;51.05;;;16.20;99.90;;;;;;5066278;28;20486;-54
2022/11/08 11:49:53;;;;;;;52.83;50.03;;;16.30;99.90;;;;;;5065970;28;20414;-56
2022/11/08 11:52:19;;;;;;;50.15;47.28;;;16.30;99.90;;;;;;5063399;28;20812;-56
2022/11/08 11:54:48;;;;;;;51.50;48.57;;;16.30;99.90;;;;;;5079102;28;20388;-52
2022/11/08 11:57:42;;;;;;;61.93;58.73;;;16.20;99.90;;;;;;5062536;28;20441;-56
2022/11/08 12:00:11;;;;;;;58.15;54.85;;;16.10;99.90;;;;;;5079130;28;20407;-55
2022/11/08 12:03:13;;;;;;;56.95;53.75;;;16.00;99.90;;;;;;5076114;28;20380;-51
2022/11/08 12:06:05;;;;;;;56.88;53.58;;;15.80;99.90;;;;;;5078243;28;20380;-56
2022/11/08 12:08:52;;;;;;;63.92;60.53;;;15.90;99.90;;;;;;5062017;28;20687;-55
2022/11/08 12:11:27;;;;;;;66.07;62.67;;;15.80;99.90;;;;;;5079728;28;20386;-53
2022/11/08 12:14:28;;;;;;;58.43;55.27;;;15.80;99.90;;;;;;5060353;28;20402;-56
2022/11/08 12:17:25;;;;;;;47.03;44.53;;;15.80;99.90;;;;;;5075263;28;20657;-55
2022/11/08 12:20:09;;;;;;;49.10;46.47;;;15.90;99.90;;;;;;5044957;28;20441;-54
2022/11/08 12:23:12;;;;;;;57.72;54.53;;;15.90;99.90;;;;;;5058617;28;20395;-54
2022/11/08 12:26:08;;;;;;;50.13;47.25;;;16.00;99.90;;;;;;5056100;28;20679;-54
2022/11/08 12:28:55;;;;;;;54.67;51.78;;;16.00;99.90;;;;;;5075176;28;20394;-54
2022/11/08 12:31:24;;;;;;;56.03;52.95;;;16.00;99.90;;;;;;5057701;28;20379;-51
2022/11/08 12:34:28;;;;;;;56.35;53.25;;;16.10;99.90;;;;;;5060367;28;20468;-52
2022/11/08 12:37:31;;;;;;;58.70;55.50;;;16.00;99.90;;;;;;5058341;28;20724;-55
2022/11/08 12:40:00;;;;;;;59.90;56.70;;;16.00;99.90;;;;;;5059188;28;20399;-53
2022/11/08 12:42:48;;;;;;;59.78;56.55;;;16.00;99.90;;;;;;5075360;28;20383;-55
2022/11/08 12:45:16;;;;;;;64.17;60.50;;;15.90;99.90;;;;;;5075131;28;20466;-54
2022/11/08 12:48:12;;;;;;;61.70;58.40;;;15.90;99.90;;;;;;5059743;28;20667;-55
2022/11/08 12:50:54;;;;;;;59.97;56.70;;;15.80;99.90;;;;;;5075174;28;20862;-53
2022/11/08 12:54:06;;;;;;;65.72;62.10;;;15.80;99.90;;;;;;5062914;28;20387;-55
2022/11/08 12:56:47;;;;;;;61.55;58.38;;;15.70;99.90;;;;;;5062897;28;20387;-55
2022/11/08 12:59:30;;;;;;;54.42;51.38;;;15.70;99.90;;;;;;5075798;28;20395;-56
2022/11/08 13:01:57;;;;;;;58.63;55.53;;;15.70;99.90;;;;;;5070770;28;20396;-53